Ever Diamond — 3FQS8 — position and weather

sailwx.info

Track history (hours):
 
Tides and Currents Weather Stations Pressure Air Temp Water Temp Dewpoint Dewpoint Depression Visibility Wind Speed Wind Dir Waves Ship Positions

Ever Diamond

Last reported at 2014-Jul-13 14:18 UTC. Time now 2014-Jul-22 11:21 UTC.
Position N 29°46' W 120°40'.
Warning: this ship's position is 8 days out of date.

Type: Ship (hazmat cat D). MMSI: 354893000.

Date/timePositionNaut miles runAvg speedWind from/ knotsBaromVisibWave heightAir tempDewpointWater temp
2014-Jul-13 14:18N 29°46' W 120°40'3218.1
2014-Jul-13 12:33N 30°06' W 121°08'1818.3
2014-Jul-13 11:33N 30°16' W 121°26'2118.4
2014-Jul-13 10:25N 30°28' W 121°46'1618.4
2014-Jul-13 09:33N 30°38' W 122°01'1818.2
2014-Jul-13 08:33N 30°50' W 122°17'1818.5
2014-Jul-13 07:33N 31°01' W 122°34'1918.4
2014-Jul-13 06:30N 31°13' W 122°51'1818.5
2014-Jul-13 05:33N 31°24' W 123°08'2018.4
2014-Jul-13 04:29N 31°36' W 123°26'1718.3
2014-Jul-13 03:33N 31°47' W 123°41'2218.0
2014-Jul-13 02:20N 32°02' W 124°01'9418.1
2014-Jul-12 21:07N 33°01' W 125°27'1217.9
2014-Jul-12 20:28N 33°08' W 125°38'1618.0
2014-Jul-12 19:33N 33°18' W 125°54'2117.8
2014-Jul-12 18:24N 33°31' W 126°14'1618.0
2014-Jul-12 17:29N 33°41' W 126°29'2018.3
2014-Jul-12 16:23N 33°52' W 126°49'1518.3
2014-Jul-12 15:33N 34°02' W 127°03'1918.6
2014-Jul-12 14:31N 34°13' W 127°23'  
Track history (hours):
 
Tides and Currents Weather Stations Pressure Air Temp Water Temp Dewpoint Dewpoint Depression Visibility Wind Speed Wind Dir Waves Ship Positions

Ever Diamond

Last reported at 2014-Jul-13 14:18 UTC. Time now 2014-Jul-22 11:21 UTC.
Position N 29°46' W 120°40'.
Warning: this ship's position is 8 days out of date.

Type: Ship (hazmat cat D). MMSI: 354893000.

Date/timePositionNaut miles runAvg speedWind from/ knotsBaromVisibWave heightAir tempDewpointWater temp
2014-Jul-13 14:18N 29°46' W 120°40'3218.1
2014-Jul-13 12:33N 30°06' W 121°08'1818.3
2014-Jul-13 11:33N 30°16' W 121°26'2118.4
2014-Jul-13 10:25N 30°28' W 121°46'1618.4
2014-Jul-13 09:33N 30°38' W 122°01'1818.2
2014-Jul-13 08:33N 30°50' W 122°17'1818.5
2014-Jul-13 07:33N 31°01' W 122°34'1918.4
2014-Jul-13 06:30N 31°13' W 122°51'1818.5
2014-Jul-13 05:33N 31°24' W 123°08'2018.4
2014-Jul-13 04:29N 31°36' W 123°26'1718.3
2014-Jul-13 03:33N 31°47' W 123°41'2218.0
2014-Jul-13 02:20N 32°02' W 124°01'9418.1
2014-Jul-12 21:07N 33°01' W 125°27'1217.9
2014-Jul-12 20:28N 33°08' W 125°38'1618.0
2014-Jul-12 19:33N 33°18' W 125°54'2117.8
2014-Jul-12 18:24N 33°31' W 126°14'1618.0
2014-Jul-12 17:29N 33°41' W 126°29'2018.3
2014-Jul-12 16:23N 33°52' W 126°49'1518.3
2014-Jul-12 15:33N 34°02' W 127°03'1918.6
2014-Jul-12 14:31N 34°13' W 127°23'  

Dump ship's entire track history